createdAt,value
2023-03-01T00:00:09.194Z,6.30
2023-03-01T00:05:14.349Z,7.00
2023-03-01T00:10:17.356Z,5.93
2023-03-01T00:15:21.453Z,5.95
2023-03-01T00:20:24.194Z,5.93
2023-03-01T00:25:27.418Z,6.72
2023-03-01T00:30:31.548Z,6.78
2023-03-01T00:35:34.554Z,7.05
2023-03-01T00:40:37.851Z,6.80
2023-03-01T00:45:41.927Z,6.28
2023-03-01T00:50:44.678Z,6.70
2023-03-01T00:55:47.416Z,7.18
2023-03-01T01:00:51.602Z,6.43
2023-03-01T01:05:54.778Z,6.90
2023-03-01T01:10:57.552Z,7.15
2023-03-01T01:16:04.126Z,6.95
2023-03-01T01:21:09.419Z,6.95
2023-03-01T01:26:15.015Z,6.32
2023-03-01T01:31:20.285Z,6.13
2023-03-01T01:36:23.078Z,5.63
2023-03-01T01:41:27.502Z,5.75
2023-03-01T01:46:34.617Z,6.10
2023-03-01T01:51:41.102Z,5.43
2023-03-01T01:56:49.860Z,4.70
2023-03-01T02:01:54.789Z,4.60
2023-03-01T02:07:03.285Z,4.20
2023-03-01T02:12:06.781Z,4.22
2023-03-01T02:17:12.297Z,3.80
2023-03-01T02:22:22.496Z,3.83
2023-03-01T02:27:33.469Z,3.53
2023-03-01T02:32:37.762Z,3.28
2023-03-01T02:37:41.973Z,3.15
2023-03-01T02:42:51.261Z,3.20
2023-03-01T02:47:57.850Z,3.40
2023-03-01T02:53:04.816Z,3.60
2023-03-01T02:58:07.773Z,3.40
2023-03-01T03:03:15.052Z,3.40
2023-03-01T03:08:24.929Z,3.03
2023-03-01T03:13:29.472Z,3.17
2023-03-01T03:18:33.725Z,3.45
2023-03-01T03:23:37.052Z,3.88
2023-03-01T03:28:41.039Z,3.50
2023-03-01T03:33:45.203Z,3.20
2023-03-01T03:38:48.414Z,2.78
2023-03-01T03:43:51.135Z,3.33
2023-03-01T03:48:55.253Z,2.85
2023-03-01T03:53:58.048Z,2.83
2023-03-01T03:59:00.746Z,3.28
2023-03-01T04:04:05.364Z,3.13
2023-03-01T04:09:08.627Z,3.42
2023-03-01T04:14:11.962Z,2.80
2023-03-01T04:19:16.157Z,2.70
2023-03-01T04:24:18.942Z,3.13
2023-03-01T04:29:21.859Z,2.72
2023-03-01T04:34:27.794Z,2.65
2023-03-01T04:39:30.540Z,2.60
2023-03-01T04:44:33.321Z,2.80
2023-03-01T04:49:37.513Z,2.95
2023-03-01T04:54:40.413Z,2.42
2023-03-01T04:59:43.115Z,2.35
2023-03-01T05:04:47.287Z,2.97
2023-03-01T05:09:50.489Z,3.60
2023-03-01T05:14:53.240Z,2.70
2023-03-01T05:20:00.552Z,2.80
2023-03-01T05:25:03.332Z,3.20
2023-03-01T05:30:14.643Z,2.90
2023-03-01T05:35:20.201Z,2.78
2023-03-01T05:40:25.167Z,3.10
2023-03-01T05:45:29.259Z,2.90
2023-03-01T05:50:36.004Z,3.25
2023-03-01T05:55:39.980Z,2.95
2023-03-01T06:00:43.335Z,3.10
2023-03-01T06:05:47.773Z,3.25
2023-03-01T06:10:50.598Z,3.38
2023-03-01T06:15:53.783Z,3.70
2023-03-01T06:20:58.694Z,3.03
2023-03-01T06:26:02.360Z,3.95
2023-03-01T06:31:10.146Z,3.85
2023-03-01T06:36:14.473Z,3.63
2023-03-01T06:41:17.489Z,3.85
2023-03-01T06:46:20.362Z,3.50
2023-03-01T06:51:24.472Z,3.95
2023-03-01T06:56:27.233Z,6.70
2023-03-01T07:01:30.571Z,6.40
2023-03-01T07:06:35.051Z,5.45
2023-03-01T07:11:37.917Z,5.10
2023-03-01T07:16:40.680Z,4.10
2023-03-01T07:21:44.921Z,5.03
2023-03-01T07:26:50.627Z,4.63
2023-03-01T07:31:53.754Z,5.10
2023-03-01T07:36:57.968Z,4.72
2023-03-01T07:42:00.677Z,4.78
2023-03-01T07:47:03.563Z,5.47
2023-03-01T07:52:07.810Z,8.02
2023-03-01T07:57:10.580Z,5.30
2023-03-01T08:02:13.496Z,5.82
2023-03-01T08:07:17.556Z,5.95
2023-03-01T08:12:20.322Z,5.88
2023-03-01T08:17:23.233Z,7.20
2023-03-01T08:22:27.409Z,7.50
2023-03-01T08:27:30.232Z,7.88
2023-03-01T08:32:38.275Z,8.55
2023-03-01T08:37:42.398Z,8.65
2023-03-01T08:42:45.286Z,9.05
2023-03-01T08:47:48.022Z,8.80
2023-03-01T08:52:52.477Z,9.50
2023-03-01T08:57:55.184Z,8.90
2023-03-01T09:02:57.955Z,8.73
2023-03-01T09:08:02.185Z,8.52
2023-03-01T09:13:04.966Z,8.90
2023-03-01T09:18:07.796Z,8.20
2023-03-01T09:23:11.843Z,9.73
2023-03-01T09:28:28.900Z,8.45
2023-03-01T09:33:34.166Z,10.02
2023-03-01T09:38:38.444Z,10.10
2023-03-01T09:43:46.809Z,9.63
2023-03-01T09:48:54.496Z,9.82
2023-03-01T09:53:59.654Z,9.53
2023-03-01T09:59:13.599Z,10.93
2023-03-01T10:04:30.341Z,10.65
2023-03-01T10:09:37.004Z,9.88
2023-03-01T10:14:47.269Z,9.90
2023-03-01T10:19:49.987Z,9.70
2023-03-01T10:24:55.370Z,9.38
2023-03-01T10:30:20.787Z,8.90
2023-03-01T10:35:26.214Z,8.57
2023-03-01T10:40:30.798Z,8.70
2023-03-01T10:45:36.829Z,8.80
2023-03-01T10:50:42.403Z,9.57
2023-03-01T10:55:46.660Z,10.35
2023-03-01T11:00:52.267Z,9.63
2023-03-01T11:05:59.246Z,9.18
2023-03-01T11:11:21.916Z,8.05
2023-03-01T11:16:34.389Z,7.78
2023-03-01T11:21:40.970Z,8.20
2023-03-01T11:26:49.524Z,7.95
2023-03-01T11:31:57.841Z,7.22
2023-03-01T11:37:05.033Z,7.32
2023-03-01T11:42:19.065Z,6.78
2023-03-01T11:47:41.239Z,7.00
2023-03-01T11:52:53.189Z,5.72
2023-03-01T11:58:20.096Z,5.15
2023-03-01T12:03:32.842Z,2.33
2023-03-01T12:08:39.892Z,3.72
2023-03-01T12:14:09.512Z,4.78
2023-03-01T12:19:45.455Z,5.00
2023-03-01T12:25:03.101Z,5.10
2023-03-01T12:30:27.800Z,4.80
2023-03-01T12:36:00.721Z,4.53
2023-03-01T12:41:29.830Z,5.25
2023-03-01T12:46:54.094Z,5.93
2023-03-01T12:52:01.547Z,5.55
2023-03-01T12:57:11.561Z,4.37
2023-03-01T13:02:24.444Z,4.40
2023-03-01T13:07:32.634Z,4.47
2023-03-01T13:12:53.216Z,5.43
2023-03-01T13:17:58.868Z,5.35
2023-03-01T13:23:09.469Z,5.00
2023-03-01T13:28:43.431Z,4.50
2023-03-01T13:33:48.817Z,4.47
2023-03-01T13:38:59.009Z,4.75
2023-03-01T13:44:01.825Z,4.68
2023-03-01T13:49:06.120Z,5.65
2023-03-01T13:54:14.342Z,6.50
2023-03-01T13:59:19.132Z,5.40
2023-03-01T14:04:26.588Z,5.97
2023-03-01T14:09:32.482Z,5.55
2023-03-01T14:14:49.245Z,5.03
2023-03-01T14:19:59.443Z,5.88
2023-03-01T14:25:04.526Z,6.32
2023-03-01T14:30:16.819Z,5.70
2023-03-01T14:35:25.420Z,5.18
2023-03-01T14:40:30.484Z,5.10
2023-03-01T14:45:33.413Z,5.22
2023-03-01T14:50:43.187Z,4.75
2023-03-01T14:55:49.455Z,4.78
2023-03-01T15:00:54.540Z,4.90
2023-03-01T15:05:59.104Z,4.88
2023-03-01T15:11:07.994Z,4.88
2023-03-01T15:16:14.377Z,5.38
2023-03-01T15:21:20.973Z,4.95
2023-03-01T15:26:27.240Z,5.78
2023-03-01T15:31:33.421Z,5.10
2023-03-01T15:36:44.523Z,5.72
2023-03-01T15:41:49.537Z,5.72
2023-03-01T15:46:52.801Z,6.75
2023-03-01T15:51:57.362Z,6.45
2023-03-01T15:57:01.272Z,6.35
2023-03-01T16:02:04.042Z,6.78
2023-03-01T16:07:08.553Z,7.75
2023-03-01T16:12:15.924Z,7.75
2023-03-01T16:17:18.774Z,8.93
2023-03-01T16:22:26.102Z,9.73
2023-03-01T16:27:29.085Z,9.30
2023-03-01T16:32:31.905Z,9.35
2023-03-01T16:37:37.174Z,10.15
2023-03-01T16:42:40.674Z,8.32
2023-03-01T16:47:45.021Z,8.30
2023-03-01T16:52:49.249Z,8.40
2023-03-01T16:57:52.229Z,8.15
2023-03-01T17:02:56.120Z,7.72
2023-03-01T17:08:00.822Z,7.20
2023-03-01T17:13:03.605Z,7.53
2023-03-01T17:18:06.795Z,7.65
2023-03-01T17:23:10.922Z,7.28
2023-03-01T17:28:14.737Z,7.28
2023-03-01T17:33:18.123Z,7.30
2023-03-01T17:38:22.319Z,7.65
2023-03-01T17:43:25.138Z,8.15
2023-03-01T17:48:28.290Z,8.98
2023-03-01T17:53:32.403Z,10.27
2023-03-01T17:58:35.542Z,9.30
2023-03-01T18:03:39.566Z,10.05
2023-03-01T18:08:45.241Z,9.43
2023-03-01T18:13:49.240Z,7.25
2023-03-01T18:18:55.382Z,7.13
2023-03-01T18:24:00.627Z,7.85
2023-03-01T18:29:04.683Z,8.82
2023-03-01T18:34:07.692Z,8.13
2023-03-01T18:39:11.829Z,8.13
2023-03-01T18:44:14.938Z,7.93
2023-03-01T18:49:18.250Z,8.55
2023-03-01T18:54:22.378Z,9.50
2023-03-01T18:59:25.298Z,10.65
2023-03-01T19:04:28.038Z,10.60
2023-03-01T19:09:32.316Z,11.60
2023-03-01T19:14:35.451Z,12.02
2023-03-01T19:19:40.236Z,11.85
2023-03-01T19:24:44.593Z,13.13
2023-03-01T19:29:47.345Z,14.35
2023-03-01T19:34:50.125Z,14.48
2023-03-01T19:39:54.289Z,16.02
2023-03-01T19:44:57.129Z,15.57
2023-03-01T19:50:00.206Z,17.75
2023-03-01T19:55:09.919Z,17.45
2023-03-01T20:00:14.176Z,17.13
2023-03-01T20:05:17.399Z,17.08
2023-03-01T20:10:26.291Z,17.00
2023-03-01T20:15:31.881Z,18.08
2023-03-01T20:20:34.752Z,18.10
2023-03-01T20:25:41.247Z,18.05
2023-03-01T20:30:44.582Z,18.55
2023-03-01T20:35:47.360Z,18.10
2023-03-01T20:40:51.437Z,18.20
2023-03-01T20:45:54.279Z,17.00
2023-03-01T20:51:01.919Z,18.33
2023-03-01T20:56:07.484Z,16.73
2023-03-01T21:01:11.821Z,17.50
2023-03-01T21:06:14.665Z,16.48
2023-03-01T21:11:19.410Z,16.90
2023-03-01T21:16:22.688Z,18.30
2023-03-01T21:21:25.686Z,17.35
2023-03-01T21:26:29.797Z,16.80
2023-03-01T21:31:34.826Z,17.25
2023-03-01T21:36:37.644Z,16.52
2023-03-01T21:41:41.723Z,16.58
2023-03-01T21:46:44.443Z,17.40
2023-03-01T21:51:47.231Z,17.35
2023-03-01T21:56:51.439Z,17.35
2023-03-01T22:01:54.168Z,16.73
2023-03-01T22:06:56.887Z,16.83
2023-03-01T22:12:02.557Z,16.77
2023-03-01T22:17:05.641Z,15.38
2023-03-01T22:22:08.446Z,15.77
2023-03-01T22:27:12.580Z,16.45
2023-03-01T22:32:15.390Z,16.33
2023-03-01T22:37:18.161Z,16.17
2023-03-01T22:42:22.260Z,16.33
2023-03-01T22:47:35.911Z,16.27
2023-03-01T22:52:39.727Z,16.35
2023-03-01T22:57:43.792Z,16.20
2023-03-01T23:02:46.621Z,16.17
2023-03-01T23:07:49.412Z,15.07
2023-03-01T23:12:55.154Z,15.60
2023-03-01T23:17:57.950Z,15.63
2023-03-01T23:23:01.505Z,14.93
2023-03-01T23:28:07.125Z,15.82
2023-03-01T23:33:09.818Z,15.50
2023-03-01T23:38:12.575Z,15.55
2023-03-01T23:43:17.124Z,16.42
2023-03-01T23:48:20.184Z,15.50
2023-03-01T23:53:23.666Z,15.00
2023-03-01T23:58:29.253Z,14.15
